Decoded Metar for KMPO (MT. POCONO in PA, USA) (IATA:MPO) | Meteo·Mobile Aviation Weather
aviador You're here:

KMPO Decoded Metar

MT. POCONO in PA, USA
Report Time2018-10-23 08:53:00
UTC Time2018-10-23 09:35:44
Flight Rules vfr VFR
Wind210° at 03 kt
W.Decomp.*RWY 23: 3.0 kt HW 0.4 kt LCW
RWY 31: 0.2 kt HW 3 kt LCW
W.Rank210° ranks 18
Current wind is below 210° avg. (8.2)
Visibility9999 m
Phenomena:N/A
Clouds:Overcast 080 Hf
Expected CloudBase > 800 ft AGL from Temp-Dew spread
Ceiling8,000 ft
Temp04°C (ISA -7)
Dew Point02°C (87% RH)
AAT1.3°C
QNH1017 hPa
Density Alt988 ft
Elevation1,893 ft
Report Wrong Elevation
Raw Report
KMPO 230853Z AUTO 21003KT 10SM OVC080 04/02 A3003 RMK AO2 SLP181
T00440022 58015=

Extra information for KMPO:More info

Metar Taf Metar & Taf Last 4 Metars F.Rules Stats Wind Profile Meteogram Temp Stats Airport Information Weather charts Add Link Nearby VenuesMetar ALERT Operation Metar Decoded Social comments

AIRNAV info for KMPO